sensor_id;sensor_type;location;lat;lon;timestamp;P1;durP1;ratioP1;P2;durP2;ratioP2
30966;SDS011;17649;51.836;8.330;2022-12-07T00:00:18;62.33;;;36.08;;
30966;SDS011;17649;51.836;8.330;2022-12-07T00:03:24;61.83;;;35.33;;
30966;SDS011;17649;51.836;8.330;2022-12-07T00:06:31;60.28;;;34.13;;
30966;SDS011;17649;51.836;8.330;2022-12-07T00:09:44;64.47;;;35.78;;
30966;SDS011;17649;51.836;8.330;2022-12-07T00:12:47;63.67;;;37.05;;
30966;SDS011;17649;51.836;8.330;2022-12-07T00:15:51;63.20;;;34.65;;
30966;SDS011;17649;51.836;8.330;2022-12-07T00:18:54;65.28;;;37.85;;
30966;SDS011;17649;51.836;8.330;2022-12-07T00:21:58;69.60;;;38.53;;
30966;SDS011;17649;51.836;8.330;2022-12-07T00:24:59;69.30;;;38.97;;
30966;SDS011;17649;51.836;8.330;2022-12-07T00:28:01;70.93;;;37.55;;
30966;SDS011;17649;51.836;8.330;2022-12-07T00:31:11;64.43;;;36.87;;
30966;SDS011;17649;51.836;8.330;2022-12-07T00:34:24;64.57;;;35.75;;
30966;SDS011;17649;51.836;8.330;2022-12-07T00:37:27;63.28;;;34.28;;
30966;SDS011;17649;51.836;8.330;2022-12-07T00:40:32;59.10;;;34.20;;
30966;SDS011;17649;51.836;8.330;2022-12-07T00:43:43;54.78;;;32.83;;
30966;SDS011;17649;51.836;8.330;2022-12-07T00:46:45;56.80;;;31.85;;
30966;SDS011;17649;51.836;8.330;2022-12-07T01:06:13;50.10;;;29.90;;
30966;SDS011;17649;51.836;8.330;2022-12-07T01:09:18;51.78;;;30.95;;
30966;SDS011;17649;51.836;8.330;2022-12-07T01:12:25;54.03;;;27.90;;
30966;SDS011;17649;51.836;8.330;2022-12-07T01:15:29;47.20;;;27.17;;
30966;SDS011;17649;51.836;8.330;2022-12-07T01:18:46;45.78;;;26.70;;
30966;SDS011;17649;51.836;8.330;2022-12-07T01:34:25;49.75;;;28.48;;
30966;SDS011;17649;51.836;8.330;2022-12-07T01:41:24;53.33;;;29.23;;
30966;SDS011;17649;51.836;8.330;2022-12-07T01:44:27;50.55;;;29.02;;
30966;SDS011;17649;51.836;8.330;2022-12-07T01:47:32;48.00;;;27.27;;
30966;SDS011;17649;51.836;8.330;2022-12-07T01:50:42;50.00;;;28.07;;
30966;SDS011;17649;51.836;8.330;2022-12-07T01:53:55;45.78;;;26.17;;
30966;SDS011;17649;51.836;8.330;2022-12-07T01:57:13;43.72;;;25.70;;
30966;SDS011;17649;51.836;8.330;2022-12-07T02:41:29;41.13;;;20.90;;
30966;SDS011;17649;51.836;8.330;2022-12-07T02:44:34;39.50;;;20.88;;
30966;SDS011;17649;51.836;8.330;2022-12-07T02:47:50;35.05;;;20.42;;
30966;SDS011;17649;51.836;8.330;2022-12-07T02:51:17;32.72;;;19.50;;
30966;SDS011;17649;51.836;8.330;2022-12-07T02:54:23;32.40;;;19.35;;
30966;SDS011;17649;51.836;8.330;2022-12-07T03:11:56;28.23;;;15.83;;
30966;SDS011;17649;51.836;8.330;2022-12-07T03:15:11;29.27;;;15.88;;
30966;SDS011;17649;51.836;8.330;2022-12-07T03:18:58;27.25;;;14.60;;
30966;SDS011;17649;51.836;8.330;2022-12-07T03:22:13;25.40;;;14.53;;
30966;SDS011;17649;51.836;8.330;2022-12-07T03:25:20;28.88;;;15.27;;
30966;SDS011;17649;51.836;8.330;2022-12-07T03:28:23;33.78;;;15.65;;
30966;SDS011;17649;51.836;8.330;2022-12-07T03:31:28;25.80;;;14.77;;
30966;SDS011;17649;51.836;8.330;2022-12-07T03:34:57;31.88;;;14.23;;
30966;SDS011;17649;51.836;8.330;2022-12-07T03:38:08;27.10;;;14.93;;
30966;SDS011;17649;51.836;8.330;2022-12-07T03:42:00;26.75;;;15.07;;
30966;SDS011;17649;51.836;8.330;2022-12-07T03:45:15;32.60;;;15.75;;
30966;SDS011;17649;51.836;8.330;2022-12-07T03:55:16;30.55;;;16.65;;
30966;SDS011;17649;51.836;8.330;2022-12-07T03:58:26;28.38;;;16.10;;
30966;SDS011;17649;51.836;8.330;2022-12-07T04:01:43;28.43;;;15.97;;
30966;SDS011;17649;51.836;8.330;2022-12-07T04:05:15;32.93;;;16.73;;
30966;SDS011;17649;51.836;8.330;2022-12-07T04:08:45;31.00;;;17.42;;
30966;SDS011;17649;51.836;8.330;2022-12-07T04:11:50;33.58;;;16.55;;
30966;SDS011;17649;51.836;8.330;2022-12-07T04:15:03;34.30;;;17.93;;
30966;SDS011;17649;51.836;8.330;2022-12-07T04:18:09;36.65;;;18.17;;
30966;SDS011;17649;51.836;8.330;2022-12-07T04:21:11;33.47;;;18.77;;
30966;SDS011;17649;51.836;8.330;2022-12-07T04:24:15;35.53;;;18.37;;
30966;SDS011;17649;51.836;8.330;2022-12-07T04:27:16;39.55;;;18.85;;
30966;SDS011;17649;51.836;8.330;2022-12-07T04:34:19;35.78;;;19.08;;
30966;SDS011;17649;51.836;8.330;2022-12-07T04:37:20;40.50;;;19.20;;
30966;SDS011;17649;51.836;8.330;2022-12-07T04:40:28;35.93;;;20.03;;
30966;SDS011;17649;51.836;8.330;2022-12-07T04:43:33;38.83;;;20.52;;
30966;SDS011;17649;51.836;8.330;2022-12-07T04:46:43;37.47;;;21.23;;
30966;SDS011;17649;51.836;8.330;2022-12-07T04:49:56;41.85;;;21.85;;
30966;SDS011;17649;51.836;8.330;2022-12-07T04:52:59;39.60;;;19.90;;
30966;SDS011;17649;51.836;8.330;2022-12-07T04:56:04;35.95;;;19.85;;
30966;SDS011;17649;51.836;8.330;2022-12-07T04:59:16;34.85;;;19.40;;
30966;SDS011;17649;51.836;8.330;2022-12-07T05:02:22;37.50;;;19.13;;
30966;SDS011;17649;51.836;8.330;2022-12-07T05:05:28;41.90;;;19.45;;
30966;SDS011;17649;51.836;8.330;2022-12-07T05:08:35;37.53;;;20.48;;
30966;SDS011;17649;51.836;8.330;2022-12-07T05:11:38;39.50;;;20.17;;
30966;SDS011;17649;51.836;8.330;2022-12-07T05:14:49;42.95;;;20.40;;
30966;SDS011;17649;51.836;8.330;2022-12-07T05:18:00;38.67;;;19.75;;
30966;SDS011;17649;51.836;8.330;2022-12-07T05:21:03;39.00;;;20.00;;
30966;SDS011;17649;51.836;8.330;2022-12-07T05:24:09;33.70;;;18.27;;
30966;SDS011;17649;51.836;8.330;2022-12-07T05:27:11;33.45;;;17.63;;
30966;SDS011;17649;51.836;8.330;2022-12-07T05:30:12;38.13;;;17.17;;
30966;SDS011;17649;51.836;8.330;2022-12-07T05:33:21;29.08;;;16.67;;
30966;SDS011;17649;51.836;8.330;2022-12-07T05:36:25;34.38;;;17.27;;
30966;SDS011;17649;51.836;8.330;2022-12-07T05:39:38;36.75;;;17.63;;
30966;SDS011;17649;51.836;8.330;2022-12-07T05:42:46;36.42;;;18.55;;
30966;SDS011;17649;51.836;8.330;2022-12-07T05:46:45;42.58;;;18.17;;
30966;SDS011;17649;51.836;8.330;2022-12-07T05:49:48;33.08;;;17.13;;
30966;SDS011;17649;51.836;8.330;2022-12-07T05:53:04;39.10;;;17.60;;
30966;SDS011;17649;51.836;8.330;2022-12-07T05:56:09;38.25;;;18.75;;
30966;SDS011;17649;51.836;8.330;2022-12-07T05:59:11;36.63;;;17.42;;
30966;SDS011;17649;51.836;8.330;2022-12-07T06:03:05;31.17;;;16.48;;
30966;SDS011;17649;51.836;8.330;2022-12-07T06:06:07;33.17;;;17.50;;
30966;SDS011;17649;51.836;8.330;2022-12-07T06:09:11;31.95;;;16.80;;
30966;SDS011;17649;51.836;8.330;2022-12-07T06:12:37;35.03;;;17.35;;
30966;SDS011;17649;51.836;8.330;2022-12-07T06:15:43;32.80;;;16.30;;
30966;SDS011;17649;51.836;8.330;2022-12-07T06:18:50;30.85;;;16.45;;
30966;SDS011;17649;51.836;8.330;2022-12-07T06:21:53;32.58;;;15.85;;
30966;SDS011;17649;51.836;8.330;2022-12-07T06:25:28;32.38;;;16.25;;
30966;SDS011;17649;51.836;8.330;2022-12-07T06:28:31;32.70;;;15.32;;
30966;SDS011;17649;51.836;8.330;2022-12-07T06:31:44;32.50;;;15.32;;
30966;SDS011;17649;51.836;8.330;2022-12-07T06:34:50;39.55;;;16.15;;
30966;SDS011;17649;51.836;8.330;2022-12-07T06:37:53;33.55;;;15.43;;
30966;SDS011;17649;51.836;8.330;2022-12-07T06:41:22;30.98;;;14.48;;
30966;SDS011;17649;51.836;8.330;2022-12-07T06:44:24;32.78;;;15.98;;
30966;SDS011;17649;51.836;8.330;2022-12-07T06:47:30;34.58;;;16.13;;
30966;SDS011;17649;51.836;8.330;2022-12-07T06:50:35;34.77;;;14.83;;
30966;SDS011;17649;51.836;8.330;2022-12-07T06:53:38;28.83;;;13.63;;
30966;SDS011;17649;51.836;8.330;2022-12-07T06:57:05;37.58;;;15.55;;
30966;SDS011;17649;51.836;8.330;2022-12-07T07:00:21;30.15;;;13.77;;
30966;SDS011;17649;51.836;8.330;2022-12-07T07:03:43;37.72;;;15.13;;
30966;SDS011;17649;51.836;8.330;2022-12-07T07:07:04;29.60;;;13.75;;
30966;SDS011;17649;51.836;8.330;2022-12-07T07:10:15;28.85;;;14.95;;
30966;SDS011;17649;51.836;8.330;2022-12-07T07:39:41;31.13;;;14.20;;
30966;SDS011;17649;51.836;8.330;2022-12-07T11:49:21;30.13;;;7.70;;
30966;SDS011;17649;51.836;8.330;2022-12-07T11:57:02;24.23;;;6.47;;
30966;SDS011;17649;51.836;8.330;2022-12-07T12:00:21;19.13;;;5.18;;
30966;SDS011;17649;51.836;8.330;2022-12-07T12:19:36;21.17;;;6.75;;
30966;SDS011;17649;51.836;8.330;2022-12-07T12:22:54;21.45;;;7.47;;
30966;SDS011;17649;51.836;8.330;2022-12-07T12:26:26;21.38;;;6.47;;
30966;SDS011;17649;51.836;8.330;2022-12-07T12:30:24;17.23;;;5.53;;
30966;SDS011;17649;51.836;8.330;2022-12-07T12:37:54;16.00;;;5.32;;
30966;SDS011;17649;51.836;8.330;2022-12-07T12:56:40;13.60;;;4.90;;
30966;SDS011;17649;51.836;8.330;2022-12-07T13:03:57;10.57;;;3.85;;
30966;SDS011;17649;51.836;8.330;2022-12-07T13:11:31;15.77;;;4.25;;
30966;SDS011;17649;51.836;8.330;2022-12-07T13:14:56;15.87;;;5.17;;
30966;SDS011;17649;51.836;8.330;2022-12-07T13:18:25;10.00;;;3.37;;
30966;SDS011;17649;51.836;8.330;2022-12-07T13:24:38;11.73;;;3.45;;
30966;SDS011;17649;51.836;8.330;2022-12-07T13:27:40;11.73;;;3.53;;
30966;SDS011;17649;51.836;8.330;2022-12-07T13:59:50;16.95;;;3.75;;
30966;SDS011;17649;51.836;8.330;2022-12-07T15:43:52;21.33;;;6.57;;
30966;SDS011;17649;51.836;8.330;2022-12-07T15:51:14;18.98;;;6.63;;
30966;SDS011;17649;51.836;8.330;2022-12-07T15:54:25;15.27;;;6.05;;
30966;SDS011;17649;51.836;8.330;2022-12-07T15:57:30;17.23;;;5.90;;
30966;SDS011;17649;51.836;8.330;2022-12-07T16:00:35;16.27;;;5.22;;
30966;SDS011;17649;51.836;8.330;2022-12-07T16:03:38;14.68;;;6.35;;
30966;SDS011;17649;51.836;8.330;2022-12-07T16:06:41;12.40;;;4.93;;
30966;SDS011;17649;51.836;8.330;2022-12-07T16:09:54;13.60;;;5.65;;
30966;SDS011;17649;51.836;8.330;2022-12-07T16:12:54;17.73;;;6.80;;
30966;SDS011;17649;51.836;8.330;2022-12-07T16:15:57;17.80;;;5.82;;
30966;SDS011;17649;51.836;8.330;2022-12-07T16:19:18;11.87;;;5.07;;
30966;SDS011;17649;51.836;8.330;2022-12-07T16:22:25;11.77;;;5.70;;
30966;SDS011;17649;51.836;8.330;2022-12-07T16:25:29;15.73;;;6.15;;
30966;SDS011;17649;51.836;8.330;2022-12-07T16:32:26;13.73;;;5.23;;
30966;SDS011;17649;51.836;8.330;2022-12-07T16:35:27;11.73;;;4.82;;
30966;SDS011;17649;51.836;8.330;2022-12-07T16:38:47;14.18;;;5.00;;
30966;SDS011;17649;51.836;8.330;2022-12-07T16:41:50;12.48;;;5.47;;
30966;SDS011;17649;51.836;8.330;2022-12-07T16:44:53;14.20;;;5.50;;
30966;SDS011;17649;51.836;8.330;2022-12-07T16:52:07;14.57;;;4.68;;
30966;SDS011;17649;51.836;8.330;2022-12-07T16:55:07;16.03;;;6.27;;
30966;SDS011;17649;51.836;8.330;2022-12-07T16:58:12;12.87;;;5.00;;
30966;SDS011;17649;51.836;8.330;2022-12-07T17:01:35;19.55;;;5.10;;
30966;SDS011;17649;51.836;8.330;2022-12-07T17:17:12;12.40;;;5.65;;
30966;SDS011;17649;51.836;8.330;2022-12-07T17:20:13;16.38;;;5.50;;
30966;SDS011;17649;51.836;8.330;2022-12-07T17:23:19;16.25;;;5.13;;
30966;SDS011;17649;51.836;8.330;2022-12-07T17:26:21;16.30;;;6.35;;
30966;SDS011;17649;51.836;8.330;2022-12-07T17:29:23;14.50;;;5.55;;
30966;SDS011;17649;51.836;8.330;2022-12-07T17:32:24;14.73;;;6.80;;
30966;SDS011;17649;51.836;8.330;2022-12-07T17:35:24;12.10;;;6.60;;
30966;SDS011;17649;51.836;8.330;2022-12-07T17:38:24;24.03;;;7.90;;
30966;SDS011;17649;51.836;8.330;2022-12-07T17:41:26;20.23;;;7.28;;
30966;SDS011;17649;51.836;8.330;2022-12-07T17:44:46;19.97;;;8.87;;
30966;SDS011;17649;51.836;8.330;2022-12-07T17:47:46;17.17;;;7.80;;
30966;SDS011;17649;51.836;8.330;2022-12-07T17:50:49;26.17;;;12.07;;
30966;SDS011;17649;51.836;8.330;2022-12-07T17:54:08;24.90;;;13.20;;
30966;SDS011;17649;51.836;8.330;2022-12-07T17:57:17;25.47;;;10.63;;
30966;SDS011;17649;51.836;8.330;2022-12-07T18:03:52;22.63;;;12.13;;
30966;SDS011;17649;51.836;8.330;2022-12-07T18:19:20;30.60;;;15.50;;
30966;SDS011;17649;51.836;8.330;2022-12-07T18:22:29;26.63;;;15.10;;
30966;SDS011;17649;51.836;8.330;2022-12-07T18:25:32;37.45;;;15.93;;
30966;SDS011;17649;51.836;8.330;2022-12-07T18:28:41;30.70;;;14.77;;
30966;SDS011;17649;51.836;8.330;2022-12-07T18:31:47;32.70;;;15.93;;
30966;SDS011;17649;51.836;8.330;2022-12-07T18:34:47;25.05;;;13.85;;
30966;SDS011;17649;51.836;8.330;2022-12-07T18:37:50;24.33;;;15.47;;
30966;SDS011;17649;51.836;8.330;2022-12-07T18:40:59;33.28;;;17.05;;
30966;SDS011;17649;51.836;8.330;2022-12-07T18:44:35;34.73;;;17.83;;
30966;SDS011;17649;51.836;8.330;2022-12-07T18:47:46;35.28;;;18.00;;
30966;SDS011;17649;51.836;8.330;2022-12-07T18:51:03;32.37;;;18.37;;
30966;SDS011;17649;51.836;8.330;2022-12-07T18:58:14;30.27;;;18.20;;
30966;SDS011;17649;51.836;8.330;2022-12-07T19:01:37;29.35;;;17.80;;
30966;SDS011;17649;51.836;8.330;2022-12-07T19:08:17;29.42;;;16.80;;
30966;SDS011;17649;51.836;8.330;2022-12-07T19:11:38;33.05;;;16.58;;
30966;SDS011;17649;51.836;8.330;2022-12-07T19:14:51;25.23;;;15.70;;
30966;SDS011;17649;51.836;8.330;2022-12-07T19:22:02;31.77;;;16.58;;
30966;SDS011;17649;51.836;8.330;2022-12-07T19:25:23;24.55;;;14.55;;
30966;SDS011;17649;51.836;8.330;2022-12-07T19:28:41;24.73;;;13.73;;
30966;SDS011;17649;51.836;8.330;2022-12-07T19:31:42;24.77;;;14.52;;
30966;SDS011;17649;51.836;8.330;2022-12-07T19:34:45;28.00;;;14.18;;
30966;SDS011;17649;51.836;8.330;2022-12-07T19:37:47;30.20;;;16.03;;
30966;SDS011;17649;51.836;8.330;2022-12-07T19:41:06;26.40;;;13.52;;
30966;SDS011;17649;51.836;8.330;2022-12-07T19:48:00;22.65;;;12.07;;
30966;SDS011;17649;51.836;8.330;2022-12-07T19:51:30;23.50;;;12.45;;
30966;SDS011;17649;51.836;8.330;2022-12-07T20:03:29;26.55;;;14.18;;
30966;SDS011;17649;51.836;8.330;2022-12-07T20:31:44;29.50;;;16.33;;
30966;SDS011;17649;51.836;8.330;2022-12-07T20:52:21;28.90;;;16.63;;
30966;SDS011;17649;51.836;8.330;2022-12-07T21:13:00;31.15;;;16.27;;
30966;SDS011;17649;51.836;8.330;2022-12-07T21:41:03;26.92;;;12.80;;
30966;SDS011;17649;51.836;8.330;2022-12-07T21:44:56;29.58;;;13.60;;
30966;SDS011;17649;51.836;8.330;2022-12-07T21:52:04;22.73;;;12.90;;
30966;SDS011;17649;51.836;8.330;2022-12-07T22:11:36;24.60;;;13.00;;
30966;SDS011;17649;51.836;8.330;2022-12-07T22:18:45;31.05;;;15.02;;
30966;SDS011;17649;51.836;8.330;2022-12-07T22:22:21;27.73;;;14.40;;
30966;SDS011;17649;51.836;8.330;2022-12-07T22:25:44;27.58;;;14.05;;
30966;SDS011;17649;51.836;8.330;2022-12-07T22:28:52;28.43;;;14.60;;
30966;SDS011;17649;51.836;8.330;2022-12-07T22:31:53;25.50;;;14.27;;
30966;SDS011;17649;51.836;8.330;2022-12-07T22:59:16;37.72;;;18.30;;
30966;SDS011;17649;51.836;8.330;2022-12-07T23:06:48;36.78;;;18.42;;
30966;SDS011;17649;51.836;8.330;2022-12-07T23:14:19;36.22;;;19.25;;
30966;SDS011;17649;51.836;8.330;2022-12-07T23:48:50;32.58;;;19.02;;
